ROAHRJKA

Guest
Details From ROAH - NAHA
To RJKA - AMAMI
Flight Number -
Tags generated
Created
Modified
Stats Distance 174 nm / 322 km
Max Altitude 17,200 ft / 5,243 m
Waypoints 3
Social Downloads 0
Likes 0
Share VATSIM

Download

Looking for another format? Having issues loading an existing format? Contact us
Advertisement - Login to hide

Notes

Basic altitude profile: - Ascent Rate: 2500ft/min - Ascent Speed: 250kts - Cruise Altitude: 35000ft - Cruise Speed: 420kts - Descent Rate: 1500ft/min - Descent Speed: 250kts Options: - Use NATs: yes - Use PACOTS: yes - Use low airways: yes - Use high airways: yes

Route

ROAH ON RJKA

ID Type Via Altitude Latitude Longitude Leg Dist Tot Dist Heading (true) Name
O ROAH APT - 0 ft / 0 m 26.19582˚ 127.64587˚ - 0 nm - NAHA
ON NDB - 17,200 ft / 5,243 m 27.42995˚ 128.70808˚ 93 nm 93 nm 37° / 38° ERABU NDB
O RJKA APT - 0 ft / 0 m 28.43063˚ 129.71254˚ 80 nm 173 nm 41° / 42° AMAMI

Altitude Profile

Advertisement - Login to hide

Weather


0- 5 10 15 20 25 30 35+ Temperature / ° C

Clouds and Precipitation
Forecast for 2017-12-17 12:00 UTC. Updated an hour ago

Ground ~20,000 ft ~40,000 ft Winds

ROAH

Details ICAO ROAH (OKA)
Name NAHA
Region Japan
Timezone Asia/Tokyo (UTC+9.0)
Stats Elevation 12 ft / 4 m (AMSL)
Location 26.195815° 127.645868°
Runways 1
Magnetic Variation 5.230° W

METAR

ROAH 170800Z 04012KT 9999 SCT036 BKN050 16/07 Q1023 RMK 3SC036 7SC050 A3022

Decode

TAF

TAF ROAH 170505Z 1706/1812 03015KT 9999 FEW030 BKN040

Decode

Departure Runways

ID Width Length Bearing (true) Bearing (mag) Surface Threshold Offset Overrun Length
18 150 ft / 46 m 9,881 ft / 3,012 m 177.59° 182.82° Asphalt 138 ft / 42 m 640 ft / 195 m
36 150 ft / 46 m 9,881 ft / 3,012 m 357.59° 2.82° Asphalt 0 ft / 0 m 509 ft / 155 m

RJKA

Details ICAO RJKA (ASJ)
Name AMAMI
Region Japan
Timezone Asia/Tokyo (UTC+9.0)
Stats Elevation 27 ft / 8 m (AMSL)
Location 28.430635° 129.712543°
Runways 1
Magnetic Variation 5.903° W

METAR

RJKA 170800Z 34008KT 9999 -SHRA FEW030 SCT035 BKN050 12/08 Q1024

Decode

TAF

Not found

Destination Runways

ID Width Length Bearing (true) Bearing (mag) Surface Threshold Offset Overrun Length
03 150 ft / 46 m 6,576 ft / 2,004 m 25.83° 31.73° Asphalt 0 ft / 0 m 197 ft / 60 m
21 150 ft / 46 m 6,576 ft / 2,004 m 205.84° 211.74° Asphalt 0 ft / 0 m 193 ft / 59 m

Approach Navaids

Runway Type Ident Frequency Range Bearing (true) Bearing (mag) Slope Elevation
03 Localiser IAM 109.30 MHz 18 nm / 33 km 25.82° 31.72° - 31 ft / 9 m (AMSL)
03 Glidescope IAM 109.30 MHz 10 nm / 19 km 25.84° 31.74° 3.00° 31 ft / 9 m (AMSL)
03 DME IAM 109.30 MHz 18 nm / 33 km - - - 31 ft / 9 m (AMSL)